Date,TemperatureHighF,TemperatureAvgF,TemperatureLowF,DewpointHighF,DewpointAvgF,DewpointLowF,HumidityHigh,HumidityAvg,HumidityLow,PressureMaxIn,PressureMinIn,WindSpeedMaxMPH,WindSpeedAvgMPH,GustSpeedMaxMPH,PrecipitationSumIn
2014-1-1,23,17,11,-3,-7,-12,35,32,31,0.00,40.00,0,0,0,0.00
2014-1-2,18,8,-4,-1,-7,-17,52,49,35,0.00,40.00,0,0,0,0.00
2014-1-3,9,1,-5,-5,-13,-19,51,51,51,0.00,40.00,0,0,0,0.00
2014-1-4,20,8,-8,-1,-11,-21,51,42,32,0.00,40.00,0,0,0,0.00
2014-1-5,33,25,15,23,5,-6,66,42,32,0.00,40.00,0,0,0,0.00
2014-1-6,52,39,23,50,32,0,95,78,36,0.00,40.00,0,0,0,0.00
2014-1-7,23,7,3,0,-15,-19,36,34,34,0.00,40.00,0,0,0,0.00
2014-1-8,15,9,2,-9,-14,-20,34,34,33,0.00,40.00,0,0,0,0.00
2014-1-9,23,15,10,-3,-9,-13,37,33,31,0.00,40.00,0,0,0,0.00
2014-1-10,32,22,8,20,6,-13,63,49,35,0.00,40.00,0,0,0,0.00
2014-1-11,54,44,31,53,39,20,96,83,63,0.00,40.00,0,0,0,0.00
2014-1-12,49,38,30,48,19,4,96,51,30,0.00,40.00,0,0,0,0.00
2014-1-13,47,36,26,25,12,4,54,38,29,0.00,40.00,0,0,0,0.00
2014-1-14,44,42,38,34,31,26,74,63,54,0.00,40.00,0,0,0,0.00
2014-1-15,42,35,29,30,24,18,80,64,42,0.00,40.00,0,0,0,0.00
2014-1-16,36,32,28,26,22,18,71,67,62,0.00,40.00,0,0,0,0.00
2014-1-17,39,33,27,27,16,4,80,52,30,0.00,40.00,0,0,0,0.00
2014-1-18,32,29,27,21,17,7,70,61,43,0.00,40.00,0,0,0,0.00
2014-1-19,29,27,24,21,14,7,72,58,46,0.00,40.00,0,0,0,0.00
2014-1-20,36,29,21,12,8,-4,48,40,31,0.00,40.00,0,0,0,0.00
2014-1-21,21,11,6,-4,-12,-16,34,34,32,0.00,40.00,0,0,0,0.00
2014-1-22,13,6,3,-10,-16,-19,34,34,33,0.00,40.00,0,0,0,0.00
2014-1-23,17,7,-2,-8,-16,-24,34,34,32,0.00,40.00,0,0,0,0.00
2014-1-24,13,7,1,-11,-16,-21,34,34,33,0.00,40.00,0,0,0,0.00
2014-1-25,33,21,9,8,-2,-14,47,35,32,0.00,40.00,0,0,0,0.00
2014-1-26,21,15,10,-1,-8,-13,37,34,32,0.00,40.00,0,0,0,0.00
2014-1-27,40,25,16,20,2,-8,55,37,30,0.00,40.00,0,0,0,0.00
2014-1-28,16,12,7,-8,-11,-16,34,33,32,0.00,40.00,0,0,0,0.00
2014-1-29,20,14,10,-5,-10,-12,34,33,32,0.00,40.00,0,0,0,0.00
2014-1-30,24,15,7,-2,-9,-15,34,33,31,0.00,40.00,0,0,0,0.00
2014-1-31,36,27,14,6,2,-10,48,33,28,0.00,40.00,0,0,0,0.00